sensor_id;sensor_type;location;lat;lon;timestamp;temperature;humidity
18884;DHT22;9574;47.282;9.640;2023-06-26T00:02:17;22.50;99.90
18884;DHT22;9574;47.282;9.640;2023-06-26T00:04:44;22.40;99.90
18884;DHT22;9574;47.282;9.640;2023-06-26T00:07:11;22.50;99.90
18884;DHT22;9574;47.282;9.640;2023-06-26T00:09:38;22.50;99.90
18884;DHT22;9574;47.282;9.640;2023-06-26T00:12:05;22.40;99.90
18884;DHT22;9574;47.282;9.640;2023-06-26T00:14:32;22.40;99.90
18884;DHT22;9574;47.282;9.640;2023-06-26T00:17:01;22.40;99.90
18884;DHT22;9574;47.282;9.640;2023-06-26T00:19:28;22.50;99.90
18884;DHT22;9574;47.282;9.640;2023-06-26T00:21:55;22.50;99.90
18884;DHT22;9574;47.282;9.640;2023-06-26T00:24:22;22.70;99.90
18884;DHT22;9574;47.282;9.640;2023-06-26T00:26:48;22.60;99.90
18884;DHT22;9574;47.282;9.640;2023-06-26T00:29:16;22.50;99.90
18884;DHT22;9574;47.282;9.640;2023-06-26T00:31:43;22.50;99.90
18884;DHT22;9574;47.282;9.640;2023-06-26T00:34:11;22.50;99.90
18884;DHT22;9574;47.282;9.640;2023-06-26T00:36:38;22.50;99.90
18884;DHT22;9574;47.282;9.640;2023-06-26T00:39:09;22.40;99.90
18884;DHT22;9574;47.282;9.640;2023-06-26T00:41:36;22.40;99.90
18884;DHT22;9574;47.282;9.640;2023-06-26T00:44:03;22.40;99.90
18884;DHT22;9574;47.282;9.640;2023-06-26T00:46:31;22.50;99.90
18884;DHT22;9574;47.282;9.640;2023-06-26T00:48:59;22.40;99.90
18884;DHT22;9574;47.282;9.640;2023-06-26T00:51:29;22.50;99.90
18884;DHT22;9574;47.282;9.640;2023-06-26T00:53:57;22.40;99.90
18884;DHT22;9574;47.282;9.640;2023-06-26T00:56:24;22.50;99.90
18884;DHT22;9574;47.282;9.640;2023-06-26T00:58:51;22.90;99.90
18884;DHT22;9574;47.282;9.640;2023-06-26T01:01:18;23.10;99.90
18884;DHT22;9574;47.282;9.640;2023-06-26T01:03:49;23.00;99.90
18884;DHT22;9574;47.282;9.640;2023-06-26T01:06:18;23.00;99.90
18884;DHT22;9574;47.282;9.640;2023-06-26T01:08:48;23.40;99.90
18884;DHT22;9574;47.282;9.640;2023-06-26T01:11:15;23.60;99.90
18884;DHT22;9574;47.282;9.640;2023-06-26T01:13:43;23.20;99.90
18884;DHT22;9574;47.282;9.640;2023-06-26T01:16:10;22.90;99.90
18884;DHT22;9574;47.282;9.640;2023-06-26T01:18:39;22.80;99.90
18884;DHT22;9574;47.282;9.640;2023-06-26T01:21:08;23.00;99.90
18884;DHT22;9574;47.282;9.640;2023-06-26T01:23:38;23.00;99.90
18884;DHT22;9574;47.282;9.640;2023-06-26T01:26:19;22.70;99.90
18884;DHT22;9574;47.282;9.640;2023-06-26T01:28:48;22.40;99.90
18884;DHT22;9574;47.282;9.640;2023-06-26T01:31:16;22.40;99.90
18884;DHT22;9574;47.282;9.640;2023-06-26T01:33:43;22.80;99.90
18884;DHT22;9574;47.282;9.640;2023-06-26T01:36:11;22.80;99.90
18884;DHT22;9574;47.282;9.640;2023-06-26T01:38:38;22.50;99.90
18884;DHT22;9574;47.282;9.640;2023-06-26T01:41:06;22.50;99.90
18884;DHT22;9574;47.282;9.640;2023-06-26T01:43:39;22.90;99.90
18884;DHT22;9574;47.282;9.640;2023-06-26T01:46:17;22.50;99.90
18884;DHT22;9574;47.282;9.640;2023-06-26T01:48:50;22.30;99.90
18884;DHT22;9574;47.282;9.640;2023-06-26T01:51:29;22.40;99.90
18884;DHT22;9574;47.282;9.640;2023-06-26T01:53:57;22.40;99.90
18884;DHT22;9574;47.282;9.640;2023-06-26T01:56:26;22.40;99.90
18884;DHT22;9574;47.282;9.640;2023-06-26T01:58:56;22.50;99.90
18884;DHT22;9574;47.282;9.640;2023-06-26T02:01:24;22.90;99.90
18884;DHT22;9574;47.282;9.640;2023-06-26T02:03:51;22.50;99.90
18884;DHT22;9574;47.282;9.640;2023-06-26T02:06:18;22.30;99.90
18884;DHT22;9574;47.282;9.640;2023-06-26T02:08:45;22.30;99.90
18884;DHT22;9574;47.282;9.640;2023-06-26T02:11:12;22.20;99.90
18884;DHT22;9574;47.282;9.640;2023-06-26T02:13:38;22.30;99.90
18884;DHT22;9574;47.282;9.640;2023-06-26T02:16:07;22.60;99.90
18884;DHT22;9574;47.282;9.640;2023-06-26T02:18:34;22.40;99.90
18884;DHT22;9574;47.282;9.640;2023-06-26T02:21:02;22.40;99.90
18884;DHT22;9574;47.282;9.640;2023-06-26T02:23:29;22.20;99.90
18884;DHT22;9574;47.282;9.640;2023-06-26T02:25:56;22.10;99.90
18884;DHT22;9574;47.282;9.640;2023-06-26T02:28:23;22.30;99.90
18884;DHT22;9574;47.282;9.640;2023-06-26T02:30:50;22.40;99.90
18884;DHT22;9574;47.282;9.640;2023-06-26T02:33:18;22.30;99.90
18884;DHT22;9574;47.282;9.640;2023-06-26T02:35:45;22.10;99.90
18884;DHT22;9574;47.282;9.640;2023-06-26T02:38:13;21.90;99.90
18884;DHT22;9574;47.282;9.640;2023-06-26T02:40:39;21.80;99.90
18884;DHT22;9574;47.282;9.640;2023-06-26T02:43:06;21.70;99.90
18884;DHT22;9574;47.282;9.640;2023-06-26T02:45:33;21.50;99.90
18884;DHT22;9574;47.282;9.640;2023-06-26T02:48:00;21.80;99.90
18884;DHT22;9574;47.282;9.640;2023-06-26T02:50:29;22.00;99.90
18884;DHT22;9574;47.282;9.640;2023-06-26T02:52:56;21.90;99.90
18884;DHT22;9574;47.282;9.640;2023-06-26T02:55:23;21.80;99.90
18884;DHT22;9574;47.282;9.640;2023-06-26T02:57:51;21.70;99.90
18884;DHT22;9574;47.282;9.640;2023-06-26T03:00:18;21.90;99.90
18884;DHT22;9574;47.282;9.640;2023-06-26T03:02:45;22.10;99.90
18884;DHT22;9574;47.282;9.640;2023-06-26T03:05:12;22.30;99.90
18884;DHT22;9574;47.282;9.640;2023-06-26T03:07:41;22.30;99.90
18884;DHT22;9574;47.282;9.640;2023-06-26T03:10:08;22.00;99.90
18884;DHT22;9574;47.282;9.640;2023-06-26T03:12:35;22.20;99.90
18884;DHT22;9574;47.282;9.640;2023-06-26T03:15:02;22.20;99.90
18884;DHT22;9574;47.282;9.640;2023-06-26T03:17:29;21.80;99.90
18884;DHT22;9574;47.282;9.640;2023-06-26T03:19:56;21.80;99.90
18884;DHT22;9574;47.282;9.640;2023-06-26T03:22:23;21.60;99.90
18884;DHT22;9574;47.282;9.640;2023-06-26T03:24:51;21.40;99.90
18884;DHT22;9574;47.282;9.640;2023-06-26T03:27:18;21.20;99.90
18884;DHT22;9574;47.282;9.640;2023-06-26T03:29:46;21.30;99.90
18884;DHT22;9574;47.282;9.640;2023-06-26T03:32:13;21.70;99.90
18884;DHT22;9574;47.282;9.640;2023-06-26T03:34:40;21.60;99.90
18884;DHT22;9574;47.282;9.640;2023-06-26T03:37:07;21.30;99.90
18884;DHT22;9574;47.282;9.640;2023-06-26T03:39:34;21.10;99.90
18884;DHT22;9574;47.282;9.640;2023-06-26T03:42:02;21.00;99.90
18884;DHT22;9574;47.282;9.640;2023-06-26T03:44:29;20.80;99.90
18884;DHT22;9574;47.282;9.640;2023-06-26T03:46:56;20.60;99.90
18884;DHT22;9574;47.282;9.640;2023-06-26T03:49:23;21.00;99.90
18884;DHT22;9574;47.282;9.640;2023-06-26T03:51:50;21.20;99.90
18884;DHT22;9574;47.282;9.640;2023-06-26T03:54:17;21.10;99.90
18884;DHT22;9574;47.282;9.640;2023-06-26T03:56:44;20.90;99.90
18884;DHT22;9574;47.282;9.640;2023-06-26T03:59:12;20.70;99.90
18884;DHT22;9574;47.282;9.640;2023-06-26T04:01:39;20.60;99.90
18884;DHT22;9574;47.282;9.640;2023-06-26T04:04:06;20.50;99.90
18884;DHT22;9574;47.282;9.640;2023-06-26T04:06:33;20.40;99.90
18884;DHT22;9574;47.282;9.640;2023-06-26T04:09:00;20.30;99.90
18884;DHT22;9574;47.282;9.640;2023-06-26T04:11:30;20.20;99.90
18884;DHT22;9574;47.282;9.640;2023-06-26T04:13:57;20.20;99.90
18884;DHT22;9574;47.282;9.640;2023-06-26T04:16:26;20.20;99.90
18884;DHT22;9574;47.282;9.640;2023-06-26T04:18:53;20.40;99.90
18884;DHT22;9574;47.282;9.640;2023-06-26T04:21:22;20.40;99.90
18884;DHT22;9574;47.282;9.640;2023-06-26T04:23:50;20.40;99.90
18884;DHT22;9574;47.282;9.640;2023-06-26T04:26:17;20.40;99.90
18884;DHT22;9574;47.282;9.640;2023-06-26T04:28:44;20.50;99.90
18884;DHT22;9574;47.282;9.640;2023-06-26T04:31:11;20.50;99.90
18884;DHT22;9574;47.282;9.640;2023-06-26T04:33:39;20.70;99.90
18884;DHT22;9574;47.282;9.640;2023-06-26T04:36:07;20.70;99.90
18884;DHT22;9574;47.282;9.640;2023-06-26T04:38:34;20.60;99.90
18884;DHT22;9574;47.282;9.640;2023-06-26T04:41:01;20.50;99.90
18884;DHT22;9574;47.282;9.640;2023-06-26T04:43:28;20.50;99.90
18884;DHT22;9574;47.282;9.640;2023-06-26T04:45:56;20.60;99.90
18884;DHT22;9574;47.282;9.640;2023-06-26T04:48:23;21.00;99.90
18884;DHT22;9574;47.282;9.640;2023-06-26T04:50:51;21.00;99.90
18884;DHT22;9574;47.282;9.640;2023-06-26T04:53:20;20.80;99.90
18884;DHT22;9574;47.282;9.640;2023-06-26T04:55:47;20.80;99.90
18884;DHT22;9574;47.282;9.640;2023-06-26T04:58:14;20.80;99.90
18884;DHT22;9574;47.282;9.640;2023-06-26T05:00:41;20.90;99.90
18884;DHT22;9574;47.282;9.640;2023-06-26T05:03:09;21.30;99.90
18884;DHT22;9574;47.282;9.640;2023-06-26T05:05:36;21.60;99.90
18884;DHT22;9574;47.282;9.640;2023-06-26T05:08:15;21.40;99.90
18884;DHT22;9574;47.282;9.640;2023-06-26T05:10:42;21.20;99.90
18884;DHT22;9574;47.282;9.640;2023-06-26T05:13:10;21.50;99.90
18884;DHT22;9574;47.282;9.640;2023-06-26T05:15:37;21.80;99.90
18884;DHT22;9574;47.282;9.640;2023-06-26T05:18:04;21.90;99.90
18884;DHT22;9574;47.282;9.640;2023-06-26T05:20:32;21.70;99.90
18884;DHT22;9574;47.282;9.640;2023-06-26T05:22:59;21.60;99.90
18884;DHT22;9574;47.282;9.640;2023-06-26T05:25:29;21.50;99.90
18884;DHT22;9574;47.282;9.640;2023-06-26T05:27:56;21.80;99.90
18884;DHT22;9574;47.282;9.640;2023-06-26T05:30:24;22.00;99.90
18884;DHT22;9574;47.282;9.640;2023-06-26T05:32:52;22.10;99.90
18884;DHT22;9574;47.282;9.640;2023-06-26T05:35:20;21.90;99.90
18884;DHT22;9574;47.282;9.640;2023-06-26T05:37:48;21.80;99.90
18884;DHT22;9574;47.282;9.640;2023-06-26T05:40:18;21.60;99.90
18884;DHT22;9574;47.282;9.640;2023-06-26T05:42:47;21.80;99.90
18884;DHT22;9574;47.282;9.640;2023-06-26T05:45:14;21.70;99.90
18884;DHT22;9574;47.282;9.640;2023-06-26T05:47:42;21.60;99.90
18884;DHT22;9574;47.282;9.640;2023-06-26T05:50:10;21.50;99.90
18884;DHT22;9574;47.282;9.640;2023-06-26T05:52:38;21.60;99.90
18884;DHT22;9574;47.282;9.640;2023-06-26T05:55:06;21.70;99.90
18884;DHT22;9574;47.282;9.640;2023-06-26T05:57:34;21.90;99.90
18884;DHT22;9574;47.282;9.640;2023-06-26T06:00:04;22.30;99.90
18884;DHT22;9574;47.282;9.640;2023-06-26T06:02:36;22.30;99.90
18884;DHT22;9574;47.282;9.640;2023-06-26T06:05:03;22.50;99.90
18884;DHT22;9574;47.282;9.640;2023-06-26T06:07:31;22.80;99.90
18884;DHT22;9574;47.282;9.640;2023-06-26T06:09:59;22.90;99.90
18884;DHT22;9574;47.282;9.640;2023-06-26T06:12:26;23.00;99.90
18884;DHT22;9574;47.282;9.640;2023-06-26T06:14:53;23.10;99.90
18884;DHT22;9574;47.282;9.640;2023-06-26T06:17:22;23.20;99.90
18884;DHT22;9574;47.282;9.640;2023-06-26T06:19:49;23.30;99.90
18884;DHT22;9574;47.282;9.640;2023-06-26T06:22:16;23.10;99.90
18884;DHT22;9574;47.282;9.640;2023-06-26T06:24:43;23.00;99.90
18884;DHT22;9574;47.282;9.640;2023-06-26T06:27:10;23.20;99.90
18884;DHT22;9574;47.282;9.640;2023-06-26T06:29:38;23.30;99.90
18884;DHT22;9574;47.282;9.640;2023-06-26T06:32:06;23.50;99.90
18884;DHT22;9574;47.282;9.640;2023-06-26T06:34:34;23.70;99.90
18884;DHT22;9574;47.282;9.640;2023-06-26T06:37:02;23.50;99.90
18884;DHT22;9574;47.282;9.640;2023-06-26T06:39:29;23.60;99.90
18884;DHT22;9574;47.282;9.640;2023-06-26T06:41:56;23.70;99.90
18884;DHT22;9574;47.282;9.640;2023-06-26T06:44:23;23.80;99.90
18884;DHT22;9574;47.282;9.640;2023-06-26T06:46:50;24.00;99.90
18884;DHT22;9574;47.282;9.640;2023-06-26T06:49:17;24.20;99.90
18884;DHT22;9574;47.282;9.640;2023-06-26T06:51:45;24.30;99.90
18884;DHT22;9574;47.282;9.640;2023-06-26T06:54:12;24.40;99.90
18884;DHT22;9574;47.282;9.640;2023-06-26T06:56:39;24.50;99.90
18884;DHT22;9574;47.282;9.640;2023-06-26T06:59:06;24.40;99.90
18884;DHT22;9574;47.282;9.640;2023-06-26T07:01:33;24.40;99.90
18884;DHT22;9574;47.282;9.640;2023-06-26T07:04:00;24.30;99.90
18884;DHT22;9574;47.282;9.640;2023-06-26T07:06:29;24.40;99.90
18884;DHT22;9574;47.282;9.640;2023-06-26T07:08:57;24.60;99.90
18884;DHT22;9574;47.282;9.640;2023-06-26T07:11:24;24.70;99.90
18884;DHT22;9574;47.282;9.640;2023-06-26T07:13:51;24.80;99.90
18884;DHT22;9574;47.282;9.640;2023-06-26T07:16:18;25.00;99.90
18884;DHT22;9574;47.282;9.640;2023-06-26T07:18:45;25.10;99.90
18884;DHT22;9574;47.282;9.640;2023-06-26T07:21:12;25.00;99.90
18884;DHT22;9574;47.282;9.640;2023-06-26T07:23:39;25.20;99.90
18884;DHT22;9574;47.282;9.640;2023-06-26T07:26:07;25.40;99.90
18884;DHT22;9574;47.282;9.640;2023-06-26T07:28:34;25.50;99.90
18884;DHT22;9574;47.282;9.640;2023-06-26T07:31:01;25.40;99.90
18884;DHT22;9574;47.282;9.640;2023-06-26T07:33:28;25.60;99.90
18884;DHT22;9574;47.282;9.640;2023-06-26T07:35:55;25.60;99.90
18884;DHT22;9574;47.282;9.640;2023-06-26T07:38:22;25.80;99.90
18884;DHT22;9574;47.282;9.640;2023-06-26T07:40:49;26.10;99.90
18884;DHT22;9574;47.282;9.640;2023-06-26T07:43:18;26.20;99.90
18884;DHT22;9574;47.282;9.640;2023-06-26T07:45:45;26.40;99.90
18884;DHT22;9574;47.282;9.640;2023-06-26T07:48:12;26.60;99.90
18884;DHT22;9574;47.282;9.640;2023-06-26T07:50:38;26.70;99.90
18884;DHT22;9574;47.282;9.640;2023-06-26T07:53:05;26.70;99.90
18884;DHT22;9574;47.282;9.640;2023-06-26T07:55:32;26.80;99.90
18884;DHT22;9574;47.282;9.640;2023-06-26T07:57:59;27.00;99.90
18884;DHT22;9574;47.282;9.640;2023-06-26T08:00:28;27.30;99.90
18884;DHT22;9574;47.282;9.640;2023-06-26T08:02:55;27.40;99.90
18884;DHT22;9574;47.282;9.640;2023-06-26T08:05:22;27.30;99.90
18884;DHT22;9574;47.282;9.640;2023-06-26T08:07:49;27.10;99.90
18884;DHT22;9574;47.282;9.640;2023-06-26T08:10:16;27.00;99.90
18884;DHT22;9574;47.282;9.640;2023-06-26T08:12:43;27.00;99.90
18884;DHT22;9574;47.282;9.640;2023-06-26T08:15:11;27.20;99.90
18884;DHT22;9574;47.282;9.640;2023-06-26T08:17:39;27.50;99.90
18884;DHT22;9574;47.282;9.640;2023-06-26T08:20:07;27.70;99.90
18884;DHT22;9574;47.282;9.640;2023-06-26T08:22:34;27.80;99.90
18884;DHT22;9574;47.282;9.640;2023-06-26T08:25:02;27.90;99.90
18884;DHT22;9574;47.282;9.640;2023-06-26T08:27:29;28.10;99.90
18884;DHT22;9574;47.282;9.640;2023-06-26T08:29:56;28.10;99.90
18884;DHT22;9574;47.282;9.640;2023-06-26T08:32:24;28.50;99.90
18884;DHT22;9574;47.282;9.640;2023-06-26T08:34:53;28.50;99.90
18884;DHT22;9574;47.282;9.640;2023-06-26T08:37:20;28.50;99.90
18884;DHT22;9574;47.282;9.640;2023-06-26T08:39:48;28.60;99.90
18884;DHT22;9574;47.282;9.640;2023-06-26T08:42:15;28.80;99.90
18884;DHT22;9574;47.282;9.640;2023-06-26T08:44:42;28.90;99.90
18884;DHT22;9574;47.282;9.640;2023-06-26T08:47:11;28.80;99.90
18884;DHT22;9574;47.282;9.640;2023-06-26T08:49:46;28.60;99.90
18884;DHT22;9574;47.282;9.640;2023-06-26T08:52:22;28.50;99.90
18884;DHT22;9574;47.282;9.640;2023-06-26T08:54:54;28.40;99.90
18884;DHT22;9574;47.282;9.640;2023-06-26T08:57:22;28.20;99.90
18884;DHT22;9574;47.282;9.640;2023-06-26T08:59:49;28.40;99.90
18884;DHT22;9574;47.282;9.640;2023-06-26T09:02:17;28.70;99.90
18884;DHT22;9574;47.282;9.640;2023-06-26T09:04:44;29.00;99.90
18884;DHT22;9574;47.282;9.640;2023-06-26T09:07:11;29.20;99.90
18884;DHT22;9574;47.282;9.640;2023-06-26T09:09:39;29.50;99.90
18884;DHT22;9574;47.282;9.640;2023-06-26T09:12:07;29.60;99.90
18884;DHT22;9574;47.282;9.640;2023-06-26T09:14:35;29.70;99.90
18884;DHT22;9574;47.282;9.640;2023-06-26T09:17:03;29.70;99.90
18884;DHT22;9574;47.282;9.640;2023-06-26T09:19:30;29.90;99.90
18884;DHT22;9574;47.282;9.640;2023-06-26T09:21:57;30.10;99.90
18884;DHT22;9574;47.282;9.640;2023-06-26T09:24:25;30.40;99.90
18884;DHT22;9574;47.282;9.640;2023-06-26T09:26:53;30.60;99.90
18884;DHT22;9574;47.282;9.640;2023-06-26T09:29:21;30.80;99.90
18884;DHT22;9574;47.282;9.640;2023-06-26T09:31:51;31.00;98.90
18884;DHT22;9574;47.282;9.640;2023-06-26T09:34:18;31.00;99.80
18884;DHT22;9574;47.282;9.640;2023-06-26T09:36:46;30.90;97.80
18884;DHT22;9574;47.282;9.640;2023-06-26T09:39:14;30.50;99.90
18884;DHT22;9574;47.282;9.640;2023-06-26T09:41:42;30.50;98.40
18884;DHT22;9574;47.282;9.640;2023-06-26T09:44:13;30.50;99.90
18884;DHT22;9574;47.282;9.640;2023-06-26T09:46:40;30.80;97.10
18884;DHT22;9574;47.282;9.640;2023-06-26T09:49:09;31.10;96.80
18884;DHT22;9574;47.282;9.640;2023-06-26T09:51:37;31.40;96.00
18884;DHT22;9574;47.282;9.640;2023-06-26T09:54:05;31.40;95.70
18884;DHT22;9574;47.282;9.640;2023-06-26T09:56:33;31.40;96.30
18884;DHT22;9574;47.282;9.640;2023-06-26T09:59:01;31.40;96.80
18884;DHT22;9574;47.282;9.640;2023-06-26T10:01:31;31.60;95.80
18884;DHT22;9574;47.282;9.640;2023-06-26T10:03:58;31.70;96.00
18884;DHT22;9574;47.282;9.640;2023-06-26T10:06:28;31.60;96.30
18884;DHT22;9574;47.282;9.640;2023-06-26T10:08:56;31.50;95.50
18884;DHT22;9574;47.282;9.640;2023-06-26T10:11:25;31.50;93.90
18884;DHT22;9574;47.282;9.640;2023-06-26T10:13:57;31.50;95.10
18884;DHT22;9574;47.282;9.640;2023-06-26T10:16:26;31.70;94.70
18884;DHT22;9574;47.282;9.640;2023-06-26T10:19:01;31.90;94.10
18884;DHT22;9574;47.282;9.640;2023-06-26T10:21:29;31.90;93.90
18884;DHT22;9574;47.282;9.640;2023-06-26T10:23:57;31.70;94.60
18884;DHT22;9574;47.282;9.640;2023-06-26T10:26:26;31.70;95.10
18884;DHT22;9574;47.282;9.640;2023-06-26T10:28:55;32.00;94.60
18884;DHT22;9574;47.282;9.640;2023-06-26T10:31:26;32.10;95.60
18884;DHT22;9574;47.282;9.640;2023-06-26T10:33:56;32.00;95.30
18884;DHT22;9574;47.282;9.640;2023-06-26T10:36:28;32.00;95.40
18884;DHT22;9574;47.282;9.640;2023-06-26T10:38:57;32.10;94.70
18884;DHT22;9574;47.282;9.640;2023-06-26T10:41:25;32.20;95.10
18884;DHT22;9574;47.282;9.640;2023-06-26T10:44:06;32.00;95.60
18884;DHT22;9574;47.282;9.640;2023-06-26T10:46:34;32.00;94.50
18884;DHT22;9574;47.282;9.640;2023-06-26T10:49:16;32.10;92.50
18884;DHT22;9574;47.282;9.640;2023-06-26T10:51:46;32.00;94.60
18884;DHT22;9574;47.282;9.640;2023-06-26T10:54:15;32.00;97.20
18884;DHT22;9574;47.282;9.640;2023-06-26T10:56:43;32.10;96.00
18884;DHT22;9574;47.282;9.640;2023-06-26T10:59:15;32.10;94.70
18884;DHT22;9574;47.282;9.640;2023-06-26T11:01:43;32.00;94.40
18884;DHT22;9574;47.282;9.640;2023-06-26T11:04:11;32.00;93.70
18884;DHT22;9574;47.282;9.640;2023-06-26T11:06:39;32.20;94.80
18884;DHT22;9574;47.282;9.640;2023-06-26T11:09:08;32.30;93.00
18884;DHT22;9574;47.282;9.640;2023-06-26T11:11:59;32.60;93.60
18884;DHT22;9574;47.282;9.640;2023-06-26T11:14:31;32.80;93.10
18884;DHT22;9574;47.282;9.640;2023-06-26T11:16:59;32.60;92.10
18884;DHT22;9574;47.282;9.640;2023-06-26T11:19:28;32.40;92.50
18884;DHT22;9574;47.282;9.640;2023-06-26T11:22:01;32.50;93.80
18884;DHT22;9574;47.282;9.640;2023-06-26T11:24:30;32.20;92.10
18884;DHT22;9574;47.282;9.640;2023-06-26T11:27:00;31.90;91.20
18884;DHT22;9574;47.282;9.640;2023-06-26T11:29:29;31.60;92.40
18884;DHT22;9574;47.282;9.640;2023-06-26T11:32:04;31.50;91.80
18884;DHT22;9574;47.282;9.640;2023-06-26T11:34:32;31.70;91.80
18884;DHT22;9574;47.282;9.640;2023-06-26T11:37:02;31.90;92.60
18884;DHT22;9574;47.282;9.640;2023-06-26T11:39:29;32.20;92.60
18884;DHT22;9574;47.282;9.640;2023-06-26T11:41:56;32.20;91.40
18884;DHT22;9574;47.282;9.640;2023-06-26T11:44:24;32.30;92.20
18884;DHT22;9574;47.282;9.640;2023-06-26T11:46:56;32.40;90.60
18884;DHT22;9574;47.282;9.640;2023-06-26T11:49:23;32.40;91.80
18884;DHT22;9574;47.282;9.640;2023-06-26T11:51:53;32.50;91.80
18884;DHT22;9574;47.282;9.640;2023-06-26T11:54:26;32.60;92.10
18884;DHT22;9574;47.282;9.640;2023-06-26T11:56:55;32.70;91.70
18884;DHT22;9574;47.282;9.640;2023-06-26T11:59:23;32.80;90.90
18884;DHT22;9574;47.282;9.640;2023-06-26T12:01:51;33.00;91.20
18884;DHT22;9574;47.282;9.640;2023-06-26T12:04:20;33.10;90.00
18884;DHT22;9574;47.282;9.640;2023-06-26T12:06:48;33.20;90.90
18884;DHT22;9574;47.282;9.640;2023-06-26T12:09:18;33.30;90.30
18884;DHT22;9574;47.282;9.640;2023-06-26T12:11:48;33.40;91.50
18884;DHT22;9574;47.282;9.640;2023-06-26T12:14:19;33.50;90.70
18884;DHT22;9574;47.282;9.640;2023-06-26T12:16:46;33.50;90.40
18884;DHT22;9574;47.282;9.640;2023-06-26T12:19:14;33.30;90.10
18884;DHT22;9574;47.282;9.640;2023-06-26T12:21:47;33.00;90.10
18884;DHT22;9574;47.282;9.640;2023-06-26T12:24:19;32.80;90.60
18884;DHT22;9574;47.282;9.640;2023-06-26T12:26:50;32.70;91.60
18884;DHT22;9574;47.282;9.640;2023-06-26T12:29:20;32.90;92.50
18884;DHT22;9574;47.282;9.640;2023-06-26T12:31:49;33.10;91.50
18884;DHT22;9574;47.282;9.640;2023-06-26T12:34:19;33.30;90.50
18884;DHT22;9574;47.282;9.640;2023-06-26T12:36:48;33.30;93.80
18884;DHT22;9574;47.282;9.640;2023-06-26T12:39:16;33.50;91.10
18884;DHT22;9574;47.282;9.640;2023-06-26T12:41:52;33.70;91.80
18884;DHT22;9574;47.282;9.640;2023-06-26T12:44:21;33.80;90.60
18884;DHT22;9574;47.282;9.640;2023-06-26T12:46:54;33.90;91.20
18884;DHT22;9574;47.282;9.640;2023-06-26T12:49:29;33.90;91.20
18884;DHT22;9574;47.282;9.640;2023-06-26T12:51:56;33.70;90.40
18884;DHT22;9574;47.282;9.640;2023-06-26T12:54:23;33.60;91.10
18884;DHT22;9574;47.282;9.640;2023-06-26T12:56:51;33.70;92.10
18884;DHT22;9574;47.282;9.640;2023-06-26T12:59:18;33.80;91.70
18884;DHT22;9574;47.282;9.640;2023-06-26T13:01:54;33.80;91.50
18884;DHT22;9574;47.282;9.640;2023-06-26T13:04:21;33.80;91.20
18884;DHT22;9574;47.282;9.640;2023-06-26T13:06:49;33.80;91.20
18884;DHT22;9574;47.282;9.640;2023-06-26T13:09:17;34.00;91.10
18884;DHT22;9574;47.282;9.640;2023-06-26T13:11:44;33.80;92.60
18884;DHT22;9574;47.282;9.640;2023-06-26T13:14:13;33.80;91.50
18884;DHT22;9574;47.282;9.640;2023-06-26T13:16:40;33.80;90.80
18884;DHT22;9574;47.282;9.640;2023-06-26T13:19:07;34.00;91.50
18884;DHT22;9574;47.282;9.640;2023-06-26T13:21:34;34.10;90.40
18884;DHT22;9574;47.282;9.640;2023-06-26T13:24:02;34.10;90.90
18884;DHT22;9574;47.282;9.640;2023-06-26T13:26:30;33.90;91.00
18884;DHT22;9574;47.282;9.640;2023-06-26T13:28:57;33.90;92.10
18884;DHT22;9574;47.282;9.640;2023-06-26T13:31:26;33.90;91.20
18884;DHT22;9574;47.282;9.640;2023-06-26T13:33:53;33.80;90.90
18884;DHT22;9574;47.282;9.640;2023-06-26T13:36:20;33.60;92.70
18884;DHT22;9574;47.282;9.640;2023-06-26T13:38:47;33.60;90.70
18884;DHT22;9574;47.282;9.640;2023-06-26T13:41:22;33.40;90.10
18884;DHT22;9574;47.282;9.640;2023-06-26T13:43:49;33.30;92.00
18884;DHT22;9574;47.282;9.640;2023-06-26T13:46:16;33.40;91.30
18884;DHT22;9574;47.282;9.640;2023-06-26T13:48:45;33.50;91.20
18884;DHT22;9574;47.282;9.640;2023-06-26T13:51:12;33.60;90.20
18884;DHT22;9574;47.282;9.640;2023-06-26T13:53:39;33.80;90.70
18884;DHT22;9574;47.282;9.640;2023-06-26T13:56:06;33.90;91.00
18884;DHT22;9574;47.282;9.640;2023-06-26T13:58:35;33.90;90.60
18884;DHT22;9574;47.282;9.640;2023-06-26T14:01:02;34.00;90.70
18884;DHT22;9574;47.282;9.640;2023-06-26T14:03:29;34.10;91.10
18884;DHT22;9574;47.282;9.640;2023-06-26T14:05:58;34.20;91.30
18884;DHT22;9574;47.282;9.640;2023-06-26T14:08:25;34.40;90.60
18884;DHT22;9574;47.282;9.640;2023-06-26T14:10:52;34.40;90.50
18884;DHT22;9574;47.282;9.640;2023-06-26T14:13:19;34.10;89.00
18884;DHT22;9574;47.282;9.640;2023-06-26T14:15:46;34.00;89.20
18884;DHT22;9574;47.282;9.640;2023-06-26T14:18:12;33.90;91.10
18884;DHT22;9574;47.282;9.640;2023-06-26T14:20:40;34.00;90.00
18884;DHT22;9574;47.282;9.640;2023-06-26T14:23:08;34.20;88.50
18884;DHT22;9574;47.282;9.640;2023-06-26T14:25:35;34.30;88.20
18884;DHT22;9574;47.282;9.640;2023-06-26T14:28:02;34.20;89.60
18884;DHT22;9574;47.282;9.640;2023-06-26T14:30:29;34.40;89.30
18884;DHT22;9574;47.282;9.640;2023-06-26T14:32:56;34.30;90.20
18884;DHT22;9574;47.282;9.640;2023-06-26T14:35:23;34.30;87.60
18884;DHT22;9574;47.282;9.640;2023-06-26T14:37:50;34.40;86.50
18884;DHT22;9574;47.282;9.640;2023-06-26T14:40:19;34.40;88.10
18884;DHT22;9574;47.282;9.640;2023-06-26T14:42:46;34.50;86.80
18884;DHT22;9574;47.282;9.640;2023-06-26T14:45:13;34.50;86.60
18884;DHT22;9574;47.282;9.640;2023-06-26T14:47:40;34.40;88.20
18884;DHT22;9574;47.282;9.640;2023-06-26T14:50:08;34.50;90.00
18884;DHT22;9574;47.282;9.640;2023-06-26T14:52:35;34.50;87.80
18884;DHT22;9574;47.282;9.640;2023-06-26T14:55:03;34.50;89.30
18884;DHT22;9574;47.282;9.640;2023-06-26T14:57:31;34.60;86.70
18884;DHT22;9574;47.282;9.640;2023-06-26T14:59:58;34.60;87.40
18884;DHT22;9574;47.282;9.640;2023-06-26T15:02:25;34.60;88.90
18884;DHT22;9574;47.282;9.640;2023-06-26T15:04:52;34.60;89.20
18884;DHT22;9574;47.282;9.640;2023-06-26T15:07:19;34.40;88.30
18884;DHT22;9574;47.282;9.640;2023-06-26T15:09:46;34.20;89.60
18884;DHT22;9574;47.282;9.640;2023-06-26T15:12:13;34.00;88.80
18884;DHT22;9574;47.282;9.640;2023-06-26T15:14:42;33.70;90.30
18884;DHT22;9574;47.282;9.640;2023-06-26T15:17:09;33.70;91.30
18884;DHT22;9574;47.282;9.640;2023-06-26T15:19:37;33.70;90.40
18884;DHT22;9574;47.282;9.640;2023-06-26T15:22:05;33.70;90.80
18884;DHT22;9574;47.282;9.640;2023-06-26T15:24:32;33.80;90.10
18884;DHT22;9574;47.282;9.640;2023-06-26T15:26:59;33.70;91.60
18884;DHT22;9574;47.282;9.640;2023-06-26T15:29:26;33.70;91.10
18884;DHT22;9574;47.282;9.640;2023-06-26T15:31:54;33.80;90.40
18884;DHT22;9574;47.282;9.640;2023-06-26T15:34:21;33.80;90.40
18884;DHT22;9574;47.282;9.640;2023-06-26T15:36:48;33.70;89.30
18884;DHT22;9574;47.282;9.640;2023-06-26T15:39:16;33.50;90.60
18884;DHT22;9574;47.282;9.640;2023-06-26T15:41:43;33.40;91.00
18884;DHT22;9574;47.282;9.640;2023-06-26T15:44:11;33.40;90.40
18884;DHT22;9574;47.282;9.640;2023-06-26T15:46:38;33.50;91.30
18884;DHT22;9574;47.282;9.640;2023-06-26T15:49:06;33.50;90.80
18884;DHT22;9574;47.282;9.640;2023-06-26T15:51:33;33.60;91.50